This is the latest recevied weather packets stored in our database for station/object TG9ADI-20. If no packets are shown the sender has not sent any weather packets the latest 10 day(s).
| Time | Temp. | Humidity | Pressure | Rain* | Wind** | Luminosity | Snow |
|---|---|---|---|---|---|---|---|
| 1778137040 | 18.89° C | 93% | 1015 hPa | 0 mm | - | - | - |
| 1778136439 | 17.22° C | 96% | 1015 hPa | 0 mm | - | - | - |
| 1778135838 | 17.78° C | 96% | 1015 hPa | 0 mm | - | - | - |
| 1778135238 | 18.89° C | 93% | 1015 hPa | 0 mm | - | - | - |
| 1778134637 | 17.22° C | 96% | 1015 hPa | 0 mm | - | - | - |
| 1778134036 | 17.78° C | 95% | 1015 hPa | 0 mm | - | - | - |
| 1778133436 | 18.89° C | 92% | 1015 hPa | 0 mm | - | - | - |
| 1778132835 | 19.44° C | 93% | 1015 hPa | 0 mm | - | - | - |
| 1778132234 | 18.89° C | 92% | 1015 hPa | 0 mm | - | - | - |
| 1778131633 | 18.89° C | 92% | 1016 hPa | 0 mm | - | - | - |
| 1778131033 | 18.89° C | 92% | 1016 hPa | 0 mm | - | - | - |
| 1778130432 | 18.89° C | 92% | 1016 hPa | 0 mm | - | - | - |
| 1778129831 | 20° C | 91% | 1016 hPa | 0 mm | - | - | - |
| 1778129231 | 18.33° C | 95% | 1016 hPa | 0 mm | - | - | - |
| 1778128630 | 18.89° C | 94% | 1016 hPa | 0 mm | - | - | - |
| 1778128030 | 20° C | 91% | 1016 hPa | 0 mm | - | - | - |
| 1778127429 | 18.33° C | 94% | 1015 hPa | 0 mm | - | - | - |
| 1778126828 | 18.89° C | 93% | 1015 hPa | 0 mm | - | - | - |
| 1778126227 | 20° C | 89% | 1015 hPa | 0 mm | - | - | - |
| 1778125627 | 20° C | 91% | 1015 hPa | 0 mm | - | - | - |
| 1778125026 | 19.44° C | 90% | 1015 hPa | 0 mm | - | - | - |
| 1778124425 | 19.44° C | 90% | 1015 hPa | 0 mm | - | - | - |
| 1778123825 | 19.44° C | 90% | 1015 hPa | 0 mm | - | - | - |
| 1778123224 | 20° C | 92% | 1015 hPa | 0 mm | - | - | - |
| 1778122623 | 20° C | 92% | 1015 hPa | 0 mm | - | - | - |
* Rain latest hour (hover to see other rain measurements)
** Current wind speed in m/s (hover to see current wind gust speed)